»·PEaware :: N933PT KMYF-KTOA

N933PT :: KMYF-KTOA

FLIGHT INFORMATION

Flight Status: Arrived
Operator: Privately registered:
United States
More flights under this callsign
Pilot: Ben L. (6391)
Aircraft: CESSNA 172 SKYHAWK
(C172)
More flights by this aircraft type
Origin: KMYF Montgomery
United States
Destination: KTOA Zamperini
United States
More flights between these airports :: More routes between these airports
Route: +OCN V23 SLI
File this flight plan on PilotEdge
Remarks: SANN3 TEC
Altitude:
(Current/Filed)
4,000ft
Speed:
(Current/Filed)
110kts
Departed: 15-Dec-17 03:51 PM
Arrived: 15-Dec-17 04:45 PM
Distance/Time
Traveled:
85nm/0:54
Distance/Time
To Go:
Arrived

Flight Plot

Page will automatically refresh every two minutes.


Map Options




Map Legend


Flown Route
Filed Route
Departure Airport
Arrival Airport
Navaid (VOR, NDB)
Fix

Horizontal Profiles

Position Reports

Time Latitude Longitude Heading Altitude Ground
Speed
15-Dec-17 15:12 32.813714 -117.141156 359 429ft 0kts
15-Dec-17 15:13 32.813714 -117.141156 359 429ft 0kts
15-Dec-17 15:14 32.813714 -117.141156 359 429ft 0kts
15-Dec-17 15:15 32.813714 -117.141156 359 429ft 0kts
15-Dec-17 15:16 32.813714 -117.141156 359 429ft 0kts
15-Dec-17 15:17 32.813714 -117.141156 359 429ft 0kts
15-Dec-17 15:18 32.813714 -117.141156 359 429ft 0kts
15-Dec-17 15:19 32.813714 -117.141156 359 429ft 0kts
15-Dec-17 15:20 32.813714 -117.141156 359 429ft 0kts
15-Dec-17 15:21 32.813714 -117.141156 359 429ft 0kts
15-Dec-17 15:22 32.813714 -117.141156 359 429ft 0kts
15-Dec-17 15:23 32.813714 -117.141156 359 429ft 0kts
15-Dec-17 15:24 32.813714 -117.141156 359 429ft 0kts
15-Dec-17 15:25 32.813714 -117.141156 359 429ft 0kts
15-Dec-17 15:26 32.813714 -117.141156 359 429ft 0kts
15-Dec-17 15:27 32.813714 -117.141156 359 429ft 0kts
15-Dec-17 15:28 32.813714 -117.141156 359 429ft 0kts
15-Dec-17 15:29 32.813714 -117.141156 359 429ft 0kts
15-Dec-17 15:30 32.813714 -117.141156 359 429ft 0kts
15-Dec-17 15:31 32.813714 -117.141156 359 429ft 0kts
15-Dec-17 15:32 32.813714 -117.141156 359 429ft 0kts
15-Dec-17 15:33 32.813714 -117.141156 359 429ft 0kts
15-Dec-17 15:34 32.813714 -117.141156 359 429ft 0kts
15-Dec-17 15:35 32.813714 -117.141156 359 429ft 0kts
15-Dec-17 15:36 32.813714 -117.141156 359 429ft 0kts
15-Dec-17 15:37 32.813714 -117.141156 359 429ft 0kts
15-Dec-17 15:38 32.813767 -117.141168 337 429ft 0kts
15-Dec-17 15:39 32.813808 -117.141186 334 429ft 0kts
15-Dec-17 15:40 32.813808 -117.141187 332 429ft 0kts
15-Dec-17 15:41 32.813708 -117.141300 144 429ft 0kts
15-Dec-17 15:42 32.813428 -117.141393 71 429ft 0kts
15-Dec-17 15:43 32.813532 -117.141314 0 429ft 0kts
15-Dec-17 15:44 32.813555 -117.141317 348 429ft 0kts
15-Dec-17 15:45 32.813555 -117.141317 348 429ft 0kts
15-Dec-17 15:46 32.813900 -117.141170 42 429ft 0kts
15-Dec-17 15:47 32.813832 -117.140460 60 429ft 0kts
15-Dec-17 15:48 32.813832 -117.140460 60 429ft 0kts
15-Dec-17 15:49 32.813844 -117.140438 69 429ft 0kts
15-Dec-17 15:50 32.813848 -117.140427 66 429ft 0kts
15-Dec-17 15:51 32.813848 -117.140427 66 429ft 0kts
15-Dec-17 15:52 32.812441 -117.135935 113 429ft 26kts
15-Dec-17 15:53 32.812032 -117.131390 21 429ft 0kts
15-Dec-17 15:54 32.812032 -117.131390 21 429ft 0kts
15-Dec-17 15:55 32.812032 -117.131390 21 429ft 0kts
15-Dec-17 15:56 32.813177 -117.131996 294 429ft 18kts
15-Dec-17 15:57 32.819775 -117.151961 278 1025ft 74kts
15-Dec-17 15:58 32.821312 -117.176124 269 1860ft 74kts
15-Dec-17 15:59 32.820978 -117.201382 270 2682ft 79kts
15-Dec-17 16:00 32.825679 -117.226279 319 3498ft 84kts
15-Dec-17 16:01 32.847225 -117.237429 341 4227ft 85kts
15-Dec-17 16:02 32.870743 -117.245720 332 4913ft 90kts
15-Dec-17 16:03 32.893859 -117.258157 325 5550ft 91kts
15-Dec-17 16:04 32.918218 -117.270102 341 5954ft 103kts
15-Dec-17 16:05 32.947242 -117.281468 331 5932ft 119kts
15-Dec-17 16:06 32.976664 -117.299459 327 5803ft 119kts
15-Dec-17 16:07 33.006310 -117.314515 346 5836ft 108kts
15-Dec-17 16:08 33.035676 -117.322860 347 5925ft 108kts
15-Dec-17 16:09 33.063864 -117.336819 327 5945ft 112kts
15-Dec-17 16:10 33.091285 -117.353952 345 5973ft 112kts
15-Dec-17 16:11 33.119817 -117.364588 342 6004ft 112kts
15-Dec-17 16:12 33.148298 -117.373924 336 6010ft 114kts
15-Dec-17 16:13 33.176728 -117.389224 339 5959ft 116kts
15-Dec-17 16:14 33.207050 -117.402138 341 5949ft 112kts
15-Dec-17 16:15 33.235317 -117.417583 325 5856ft 110kts
15-Dec-17 16:16 33.257623 -117.438779 315 5840ft 108kts
15-Dec-17 16:17 33.281688 -117.460425 323 5815ft 108kts
15-Dec-17 16:18 33.299703 -117.488361 300 5783ft 107kts
15-Dec-17 16:19 33.320098 -117.514358 317 5757ft 108kts
15-Dec-17 16:20 33.343339 -117.536911 318 5732ft 108kts
15-Dec-17 16:21 33.365116 -117.560588 315 5754ft 105kts
15-Dec-17 16:22 33.385631 -117.585253 297 5757ft 105kts
15-Dec-17 16:23 33.392332 -117.619178 283 5852ft 106kts
15-Dec-17 16:24 33.397218 -117.653859 280 5928ft 108kts
15-Dec-17 16:25 33.401880 -117.687799 286 5950ft 99kts
15-Dec-17 16:26 33.398530 -117.721164 275 5853ft 107kts
15-Dec-17 16:27 33.404257 -117.751666 297 6275ft 78kts
15-Dec-17 16:28 33.414983 -117.780058 293 5789ft 113kts
15-Dec-17 16:29 33.437593 -117.806044 288 5058ft 113kts
15-Dec-17 16:30 33.455423 -117.835695 283 4245ft 115kts
15-Dec-17 16:31 33.468418 -117.868023 274 3971ft 108kts
15-Dec-17 16:32 33.478080 -117.900432 253 4202ft 88kts
15-Dec-17 16:33 33.487383 -117.928590 258 4455ft 90kts
15-Dec-17 16:34 33.499572 -117.958942 298 4576ft 133kts
15-Dec-17 16:35 33.528927 -117.984026 277 5016ft 99kts
15-Dec-17 16:36 33.551612 -118.009322 292 5127ft 116kts
15-Dec-17 16:37 33.577087 -118.032638 294 5446ft 109kts
15-Dec-17 16:37 33.601401 -118.045405 318 5724ft 114kts
15-Dec-17 16:39 33.629397 -118.075733 304 5672ft 120kts
15-Dec-17 16:40 33.649514 -118.108434 307 5336ft 121kts
15-Dec-17 16:40 33.667176 -118.133583 306 4964ft 119kts
15-Dec-17 16:42 33.691075 -118.169327 310 4105ft 118kts
15-Dec-17 16:43 33.710894 -118.199715 311 3344ft 116kts
15-Dec-17 16:44 33.727421 -118.222252 303 2816ft 92kts
15-Dec-17 16:45 33.742137 -118.246582 303 2065ft 60kts
15-Dec-17 16:46 33.750942 -118.259880 306 1880ft 67kts
15-Dec-17 16:47 33.762374 -118.277032 306 1539ft 66kts
15-Dec-17 16:48 33.773377 -118.293216 305 1084ft 62kts
15-Dec-17 16:49 33.783863 -118.308908 306 783ft 60kts
15-Dec-17 16:50 33.794350 -118.324932 305 393ft 63kts
15-Dec-17 16:51 33.803520 -118.338899 308 106ft 29kts
15-Dec-17 16:52 33.805857 -118.343789 273 106ft 0kts
15-Dec-17 16:53 33.805125 -118.345799 216 106ft 15kts

Navigation Log

Ident Type
1. KMYF Airport
2. OCN Navaid
3. KELPS Fix
4. DANAH Fix
5. KRAUZ Fix
6. BALBO Fix
7. MIDDS Fix
8. SLI Navaid
9. KTOA Airport